createdAt,value
2016-09-11T04:00:42.743Z,1015.59
2016-09-11T04:01:08.403Z,1015.61
2016-09-11T04:01:34.024Z,1015.62
2016-09-11T04:01:59.577Z,1015.6
2016-09-11T04:02:25.111Z,1015.63
2016-09-11T04:02:50.937Z,1015.63
2016-09-11T04:03:16.499Z,1015.6
2016-09-11T04:03:42.177Z,1015.62
2016-09-11T04:04:07.806Z,1015.59
2016-09-11T04:04:33.365Z,1015.6
2016-09-11T04:04:59.026Z,1015.55
2016-09-11T04:05:24.586Z,1015.61
2016-09-11T04:05:50.138Z,1015.6
2016-09-11T04:06:15.895Z,1015.59
2016-09-11T04:06:41.476Z,1015.59
2016-09-11T04:07:07.011Z,1015.6
2016-09-11T04:07:32.703Z,1015.64
2016-09-11T04:07:58.325Z,1015.6
2016-09-11T04:08:23.884Z,1015.62
2016-09-11T04:08:49.534Z,1015.61
2016-09-11T04:09:15.090Z,1015.61
2016-09-11T04:09:40.646Z,1015.63
2016-09-11T04:10:06.306Z,1015.61
2016-09-11T04:10:32.089Z,1015.65
2016-09-11T04:10:57.635Z,1015.64
2016-09-11T04:11:23.318Z,1015.67
2016-09-11T04:11:48.928Z,1015.67
2016-09-11T04:12:14.554Z,1015.67
2016-09-11T04:12:40.129Z,1015.65
2016-09-11T04:13:05.688Z,1015.64
2016-09-11T04:13:31.369Z,1015.64
2016-09-11T04:13:56.927Z,1015.69
2016-09-11T04:14:22.491Z,1015.63
2016-09-11T04:14:48.032Z,1015.67
2016-09-11T04:15:13.606Z,1015.66
2016-09-11T04:15:39.174Z,1015.68
2016-09-11T04:16:04.760Z,1015.71
2016-09-11T04:16:30.336Z,1015.64
2016-09-11T04:16:55.915Z,1015.66
2016-09-11T04:17:21.547Z,1015.71
2016-09-11T04:17:47.148Z,1015.67
2016-09-11T04:18:12.776Z,1015.71
2016-09-11T04:18:38.351Z,1015.67
2016-09-11T04:19:03.905Z,1015.72
2016-09-11T04:19:29.458Z,1015.66
2016-09-11T04:19:55.127Z,1015.69
2016-09-11T04:20:21.209Z,1015.71
2016-09-11T04:20:46.776Z,1015.67
2016-09-11T04:21:12.330Z,1015.68
2016-09-11T04:21:38.022Z,1015.68
2016-09-11T04:22:03.668Z,1015.7
2016-09-11T04:22:29.228Z,1015.7
2016-09-11T04:22:54.778Z,1015.72
2016-09-11T04:23:20.345Z,1015.72
2016-09-11T04:23:45.936Z,1015.69
2016-09-11T04:24:11.508Z,1015.78
2016-09-11T04:24:37.100Z,1015.73
2016-09-11T04:25:13.161Z,1015.73
2016-09-11T04:25:38.734Z,1015.74
2016-09-11T04:26:05.598Z,1015.69
2016-09-11T04:26:30.657Z,1015.74
2016-09-11T04:26:56.277Z,1015.75
2016-09-11T04:27:22.155Z,1015.75
2016-09-11T04:27:47.723Z,1015.73
2016-09-11T04:28:13.283Z,1015.77
2016-09-11T04:28:38.875Z,1015.79
2016-09-11T04:29:04.451Z,1015.77
2016-09-11T04:29:30.022Z,1015.73
2016-09-11T04:29:55.596Z,1015.78
2016-09-11T04:30:21.163Z,1015.76
2016-09-11T04:30:46.824Z,1015.77
2016-09-11T04:31:12.408Z,1015.76
2016-09-11T04:31:37.967Z,1015.75
2016-09-11T04:32:03.549Z,1015.73
2016-09-11T04:32:29.117Z,1015.78
2016-09-11T04:32:54.670Z,1015.8
2016-09-11T04:33:20.236Z,1015.76
2016-09-11T04:33:45.802Z,1015.76
2016-09-11T04:34:22.870Z,1015.82
2016-09-11T04:34:48.435Z,1015.77
2016-09-11T04:35:14.000Z,1015.75
2016-09-11T04:35:39.638Z,1015.8
2016-09-11T04:36:05.407Z,1015.77
2016-09-11T04:36:30.979Z,1015.83
2016-09-11T04:36:56.593Z,1015.84
2016-09-11T04:37:22.877Z,1015.82
2016-09-11T04:37:48.448Z,1015.83
2016-09-11T04:38:14.593Z,1015.89
2016-09-11T04:38:40.152Z,1015.88
2016-09-11T04:39:05.703Z,1015.89
2016-09-11T04:39:31.955Z,1015.87
2016-09-11T04:39:57.604Z,1015.87
2016-09-11T04:40:23.747Z,1015.86
2016-09-11T04:40:49.315Z,1015.87
2016-09-11T04:41:15.511Z,1015.88
2016-09-11T04:41:41.059Z,1015.88
2016-09-11T04:42:06.615Z,1015.88
2016-09-11T04:42:32.953Z,1015.88
2016-09-11T04:42:58.625Z,1015.93
2016-09-11T04:43:24.701Z,1015.9
2016-09-11T04:43:50.258Z,1015.94
2016-09-11T04:44:15.810Z,1015.89
2016-09-11T04:44:42.165Z,1015.9
2016-09-11T04:45:07.830Z,1015.91
2016-09-11T04:45:33.855Z,1015.93
2016-09-11T04:45:59.430Z,1015.95
2016-09-11T04:46:25.621Z,1015.9
2016-09-11T04:46:51.176Z,1015.97
2016-09-11T04:47:16.786Z,1015.95
2016-09-11T04:47:42.969Z,1015.94
2016-09-11T04:48:08.539Z,1015.96
2016-09-11T04:48:34.885Z,1015.96
2016-09-11T04:49:00.451Z,1015.98
2016-09-11T04:49:26.004Z,1015.99
2016-09-11T04:49:52.148Z,1015.99
2016-09-11T04:50:17.718Z,1016
2016-09-11T04:50:43.945Z,1016
2016-09-11T04:51:09.516Z,1016.01
2016-09-11T04:51:35.808Z,1016.01
2016-09-11T04:52:01.420Z,1016.02
2016-09-11T04:52:27.018Z,1016.02
2016-09-11T04:52:53.627Z,1016.03
2016-09-11T04:53:19.257Z,1015.99
2016-09-11T04:53:44.867Z,1016.03
2016-09-11T04:54:10.436Z,1016
2016-09-11T04:54:36.005Z,1015.98
2016-09-11T04:55:02.238Z,1016.02
2016-09-11T04:55:27.821Z,1015.99
2016-09-11T04:55:54.009Z,1015.96
2016-09-11T04:56:19.575Z,1015.98
2016-09-11T04:56:45.786Z,1016.01
2016-09-11T04:57:11.333Z,1016
2016-09-11T04:57:36.929Z,1016.04
2016-09-11T04:58:03.258Z,1016.02
2016-09-11T04:58:28.816Z,1016.02
2016-09-11T04:58:54.955Z,1016.04
2016-09-11T04:59:20.529Z,1015.99
2016-09-11T04:59:46.104Z,1016.03
2016-09-11T05:00:12.293Z,1016.05
2016-09-11T05:00:37.854Z,1016
2016-09-11T05:01:04.134Z,1016.04
2016-09-11T05:01:29.688Z,1016.09
2016-09-11T05:01:55.869Z,1016.06
2016-09-11T05:02:21.432Z,1016.08
2016-09-11T05:02:46.992Z,1016.07
2016-09-11T05:03:13.270Z,1016.15
2016-09-11T05:03:38.834Z,1016.1
2016-09-11T05:04:05.047Z,1016.1
2016-09-11T05:04:30.627Z,1016.1
2016-09-11T05:04:56.208Z,1016.11
2016-09-11T05:05:22.441Z,1016.07
2016-09-11T05:05:48.087Z,1016.09
2016-09-11T05:06:14.214Z,1016.1
2016-09-11T05:06:39.776Z,1016.11
2016-09-11T05:07:05.965Z,1016.07
2016-09-11T05:07:31.534Z,1016.07
2016-09-11T05:07:57.092Z,1016.08
2016-09-11T05:08:23.444Z,1016.08
2016-09-11T05:08:49.118Z,1016.09
2016-09-11T05:09:15.146Z,1016.09
2016-09-11T05:09:40.919Z,1016.11
2016-09-11T05:10:06.637Z,1016.1
2016-09-11T05:10:32.477Z,1016.1
2016-09-11T05:10:58.112Z,1016.08
2016-09-11T05:11:24.314Z,1016.13
2016-09-11T05:11:50.537Z,1016.13
2016-09-11T05:12:16.088Z,1016.14
2016-09-11T05:12:41.677Z,1016.14
2016-09-11T05:13:07.282Z,1016.09
2016-09-11T05:13:33.441Z,1016.14
2016-09-11T05:13:59.018Z,1016.15
2016-09-11T05:14:25.279Z,1016.08
2016-09-11T05:14:50.861Z,1016.1
2016-09-11T05:15:16.431Z,1016.1
2016-09-11T05:15:42.583Z,1016.08
2016-09-11T05:16:08.170Z,1016.15
2016-09-11T05:16:34.379Z,1016.15
2016-09-11T05:16:59.955Z,1016.12
2016-09-11T05:17:26.152Z,1016.17
2016-09-11T05:17:51.714Z,1016.19
2016-09-11T05:18:17.257Z,1016.19
2016-09-11T05:18:43.553Z,1016.15
2016-09-11T05:19:09.194Z,1016.2
2016-09-11T05:19:35.329Z,1016.19
2016-09-11T05:20:00.924Z,1016.23
2016-09-11T05:20:26.495Z,1016.22
2016-09-11T05:20:52.715Z,1016.27
2016-09-11T05:21:18.298Z,1016.29
2016-09-11T05:21:44.519Z,1016.27
2016-09-11T05:22:10.069Z,1016.29
2016-09-11T05:22:36.248Z,1016.3
2016-09-11T05:23:01.821Z,1016.31
2016-09-11T05:23:27.400Z,1016.36
2016-09-11T05:23:53.639Z,1016.36
2016-09-11T05:24:19.266Z,1016.37
2016-09-11T05:24:45.561Z,1016.4
2016-09-11T05:25:11.157Z,1016.38
2016-09-11T05:25:36.727Z,1016.38
2016-09-11T05:26:02.776Z,1016.4
2016-09-11T05:26:28.364Z,1016.4
2016-09-11T05:26:54.671Z,1016.39
2016-09-11T05:27:20.225Z,1016.38
2016-09-11T05:27:46.333Z,1016.36
2016-09-11T05:28:11.902Z,1016.37
2016-09-11T05:28:37.454Z,1016.38
2016-09-11T05:29:03.730Z,1016.36
2016-09-11T05:29:29.279Z,1016.35
2016-09-11T05:29:55.507Z,1016.41
2016-09-11T05:30:21.128Z,1016.46
2016-09-11T05:30:46.750Z,1016.43
2016-09-11T05:31:12.911Z,1016.44
2016-09-11T05:31:38.489Z,1016.46
2016-09-11T05:32:04.647Z,1016.45
2016-09-11T05:32:30.218Z,1016.51
2016-09-11T05:32:56.429Z,1016.45
2016-09-11T05:33:22.015Z,1016.48
2016-09-11T05:33:47.675Z,1016.47
2016-09-11T05:34:13.809Z,1016.4
2016-09-11T05:34:39.369Z,1016.5
2016-09-11T05:35:05.616Z,1016.41
2016-09-11T05:35:31.471Z,1016.43
2016-09-11T05:35:57.048Z,1016.43
2016-09-11T05:36:23.013Z,1016.47
2016-09-11T05:36:48.575Z,1016.45
2016-09-11T05:37:14.752Z,1016.52
2016-09-11T05:37:40.316Z,1016.49
2016-09-11T05:38:06.526Z,1016.49
2016-09-11T05:38:32.082Z,1016.52
2016-09-11T05:38:57.626Z,1016.5
2016-09-11T05:39:23.898Z,1016.51
2016-09-11T05:39:49.466Z,1016.45
2016-09-11T05:40:15.867Z,1016.49
2016-09-11T05:40:41.427Z,1016.45
2016-09-11T05:41:06.994Z,1016.45
2016-09-11T05:41:33.104Z,1016.43
2016-09-11T05:41:58.667Z,1016.46
2016-09-11T05:42:24.826Z,1016.49
2016-09-11T05:42:50.395Z,1016.53
2016-09-11T05:43:16.603Z,1016.58
2016-09-11T05:43:42.172Z,1016.55
2016-09-11T05:44:07.746Z,1016.56
2016-09-11T05:44:34.056Z,1016.57
2016-09-11T05:44:59.629Z,1016.52
2016-09-11T05:45:25.781Z,1016.57
2016-09-11T05:45:51.338Z,1016.62
2016-09-11T05:46:16.894Z,1016.6
2016-09-11T05:46:43.123Z,1016.58
2016-09-11T05:47:08.842Z,1016.54
2016-09-11T05:47:34.937Z,1016.55
2016-09-11T05:48:00.508Z,1016.57
2016-09-11T05:48:26.703Z,1016.57
2016-09-11T05:48:52.285Z,1016.63
2016-09-11T05:49:17.856Z,1016.63
2016-09-11T05:49:44.090Z,1016.54
2016-09-11T05:50:09.654Z,1016.57
2016-09-11T05:50:35.887Z,1016.55
2016-09-11T05:51:01.480Z,1016.54
2016-09-11T05:51:27.058Z,1016.58
2016-09-11T05:51:53.184Z,1016.6
2016-09-11T05:52:19.017Z,1016.62
2016-09-11T05:52:45.042Z,1016.66
2016-09-11T05:53:10.656Z,1016.6
2016-09-11T05:53:36.783Z,1016.6
2016-09-11T05:54:02.347Z,1016.64
2016-09-11T05:54:27.918Z,1016.63
2016-09-11T05:54:54.183Z,1016.66
2016-09-11T05:55:19.758Z,1016.63
2016-09-11T05:55:45.963Z,1016.61
2016-09-11T05:56:11.552Z,1016.63
2016-09-11T05:56:37.123Z,1016.65
2016-09-11T05:57:03.325Z,1016.66
2016-09-11T05:57:28.914Z,1016.67
2016-09-11T05:57:55.108Z,1016.65
2016-09-11T05:58:20.687Z,1016.66
2016-09-11T05:58:46.880Z,1016.66
2016-09-11T05:59:12.445Z,1016.69
2016-09-11T05:59:38.011Z,1016.7
2016-09-11T06:00:04.256Z,1016.7
2016-09-11T06:01:17.671Z,1016.69
2016-09-11T06:01:43.271Z,1016.71
2016-09-11T06:02:09.241Z,1016.67
2016-09-11T06:02:34.904Z,1016.69
2016-09-11T06:03:00.474Z,1016.71
2016-09-11T06:03:26.026Z,1016.71
2016-09-11T06:03:51.578Z,1016.71
2016-09-11T06:04:17.147Z,1016.73
2016-09-11T06:04:42.726Z,1016.71
2016-09-11T06:05:08.537Z,1016.75
2016-09-11T06:05:34.092Z,1016.7
2016-09-11T06:05:59.660Z,1016.72
2016-09-11T06:06:25.191Z,1016.7
2016-09-11T06:06:50.965Z,1016.72
2016-09-11T06:07:16.536Z,1016.71
2016-09-11T06:07:42.110Z,1016.71
2016-09-11T06:08:07.736Z,1016.76
2016-09-11T06:08:33.467Z,1016.72
2016-09-11T06:08:59.141Z,1016.75
2016-09-11T06:09:24.686Z,1016.76
2016-09-11T06:09:50.275Z,1016.76
2016-09-11T06:10:15.948Z,1016.77
2016-09-11T06:10:41.500Z,1016.72
2016-09-11T06:11:07.073Z,1016.75
2016-09-11T06:11:32.830Z,1016.75
2016-09-11T06:11:58.432Z,1016.78
2016-09-11T06:12:24.532Z,1016.76
2016-09-11T06:12:50.105Z,1016.78
2016-09-11T06:13:16.521Z,1016.75
2016-09-11T06:13:42.292Z,1016.77
2016-09-11T06:14:08.560Z,1016.75
2016-09-11T06:14:34.319Z,1016.78
2016-09-11T06:14:59.938Z,1016.82
2016-09-11T06:15:25.761Z,1016.81
2016-09-11T06:15:51.203Z,1016.82
2016-09-11T06:16:16.910Z,1016.82
2016-09-11T06:16:42.489Z,1016.83
2016-09-11T06:17:08.147Z,1016.84
2016-09-11T06:17:33.779Z,1016.85
2016-09-11T06:17:59.760Z,1016.86
2016-09-11T06:18:25.841Z,1016.81
2016-09-11T06:18:51.417Z,1016.83
2016-09-11T06:19:17.173Z,1016.86
2016-09-11T06:19:42.813Z,1016.86
2016-09-11T06:20:08.441Z,1016.92
2016-09-11T06:20:34.280Z,1016.92
2016-09-11T06:20:59.900Z,1016.92
2016-09-11T06:21:25.480Z,1016.93
2016-09-11T06:21:51.045Z,1016.95
2016-09-11T06:22:16.556Z,1016.97
2016-09-11T06:22:42.614Z,1017
2016-09-11T06:23:08.381Z,1016.99
2016-09-11T06:23:34.184Z,1017.02
2016-09-11T06:23:59.761Z,1016.99
2016-09-11T06:24:25.447Z,1017.02
2016-09-11T06:24:51.346Z,1017.03
2016-09-11T06:25:18.495Z,1017.04
2016-09-11T06:25:44.178Z,1017.04
2016-09-11T06:26:09.895Z,1017.02
2016-09-11T06:26:35.444Z,1017.07
2016-09-11T06:27:00.994Z,1017.1
2016-09-11T06:27:26.570Z,1017.07
2016-09-11T06:27:52.404Z,1017.08
2016-09-11T06:28:18.072Z,1017.09
2016-09-11T06:28:43.603Z,1017.08
2016-09-11T06:29:09.375Z,1017.13
2016-09-11T06:29:39.839Z,1017.13
2016-09-11T06:30:06.159Z,1017.14
2016-09-11T06:30:31.799Z,1017.13
2016-09-11T06:30:57.369Z,1017.13
2016-09-11T06:31:23.071Z,1017.16
2016-09-11T06:31:49.226Z,1017.14
2016-09-11T06:32:15.033Z,1017.16
2016-09-11T06:32:40.817Z,1017.15
2016-09-11T06:33:06.375Z,1017.18
2016-09-11T06:33:32.941Z,1017.16
2016-09-11T06:33:58.483Z,1017.16
2016-09-11T06:34:24.170Z,1017.17
2016-09-11T06:34:49.978Z,1017.16
2016-09-11T06:35:15.676Z,1017.16
2016-09-11T06:35:41.337Z,1017.19
2016-09-11T06:36:07.328Z,1017.21
2016-09-11T06:36:32.890Z,1017.2
2016-09-11T06:36:59.134Z,1017.19
2016-09-11T06:37:24.930Z,1017.19
2016-09-11T06:37:50.981Z,1017.21
2016-09-11T06:38:16.547Z,1017.2
2016-09-11T06:38:42.496Z,1017.22
2016-09-11T06:39:08.461Z,1017.26
2016-09-11T06:39:33.950Z,1017.28
2016-09-11T06:40:00.160Z,1017.29
2016-09-11T06:40:26.028Z,1017.29
2016-09-11T06:40:51.642Z,1017.29
2016-09-11T06:41:17.582Z,1017.26
2016-09-11T06:41:43.898Z,1017.27
2016-09-11T06:42:09.712Z,1017.28
2016-09-11T06:42:35.282Z,1017.3
2016-09-11T06:43:01.393Z,1017.32
2016-09-11T06:43:27.116Z,1017.3
2016-09-11T06:43:52.698Z,1017.31
2016-09-11T06:44:18.514Z,1017.34
2016-09-11T06:44:44.161Z,1017.39
2016-09-11T06:45:10.288Z,1017.36
2016-09-11T06:45:35.893Z,1017.34
2016-09-11T06:46:01.558Z,1017.35
2016-09-11T06:46:27.528Z,1017.39
2016-09-11T06:46:53.094Z,1017.4
2016-09-11T06:47:19.384Z,1017.41
2016-09-11T06:47:45.205Z,1017.41
2016-09-11T06:48:11.184Z,1017.4
2016-09-11T06:48:36.781Z,1017.44
2016-09-11T06:49:02.357Z,1017.41
2016-09-11T06:49:28.609Z,1017.42
2016-09-11T06:49:54.467Z,1017.4
2016-09-11T06:50:20.522Z,1017.44
2016-09-11T06:50:46.212Z,1017.4
2016-09-11T06:51:11.803Z,1017.4
2016-09-11T06:51:37.748Z,1017.38
2016-09-11T06:52:03.320Z,1017.39
2016-09-11T06:52:29.562Z,1017.41
2016-09-11T06:52:55.146Z,1017.4
2016-09-11T06:53:21.412Z,1017.46
2016-09-11T06:53:47.272Z,1017.39
2016-09-11T06:54:12.896Z,1017.43
2016-09-11T06:54:38.648Z,1017.42
2016-09-11T06:55:04.306Z,1017.41
2016-09-11T06:55:30.383Z,1017.4
2016-09-11T06:55:56.099Z,1017.4
2016-09-11T06:56:21.749Z,1017.42
2016-09-11T06:56:47.741Z,1017.46
2016-09-11T06:57:13.361Z,1017.5
2016-09-11T06:57:39.565Z,1017.48
2016-09-11T06:58:05.247Z,1017.47
2016-09-11T06:58:31.374Z,1017.47
2016-09-11T06:58:56.964Z,1017.48
2016-09-11T06:59:22.662Z,1017.48
2016-09-11T06:59:48.692Z,1017.48
2016-09-11T07:00:14.353Z,1017.49
2016-09-11T07:00:40.583Z,1017.51
2016-09-11T07:01:06.154Z,1017.52
2016-09-11T07:02:25.058Z,1017.52
2016-09-11T07:02:50.809Z,1017.51
2016-09-11T07:03:16.513Z,1017.51
2016-09-11T07:03:42.209Z,1017.51
2016-09-11T07:04:07.810Z,1017.52
2016-09-11T07:04:33.715Z,1017.49
2016-09-11T07:04:59.324Z,1017.5
2016-09-11T07:05:24.924Z,1017.48
2016-09-11T07:05:50.496Z,1017.51
2016-09-11T07:06:16.328Z,1017.52
2016-09-11T07:06:41.878Z,1017.53
2016-09-11T07:07:07.566Z,1017.53
2016-09-11T07:07:33.136Z,1017.53
2016-09-11T07:07:58.707Z,1017.55
2016-09-11T07:08:24.280Z,1017.56
2016-09-11T07:08:49.978Z,1017.56
2016-09-11T07:09:15.536Z,1017.56
2016-09-11T07:09:41.162Z,1017.58
2016-09-11T07:10:07.087Z,1017.55
2016-09-11T07:10:32.651Z,1017.63
2016-09-11T07:10:58.237Z,1017.6
2016-09-11T07:11:23.821Z,1017.63
2016-09-11T07:11:49.462Z,1017.59
2016-09-11T07:12:15.285Z,1017.59
2016-09-11T07:12:41.052Z,1017.62
2016-09-11T07:13:06.623Z,1017.65
2016-09-11T07:13:32.230Z,1017.64
2016-09-11T07:13:57.910Z,1017.63
2016-09-11T07:14:23.473Z,1017.67
2016-09-11T07:14:49.354Z,1017.69
2016-09-11T07:15:14.982Z,1017.69
2016-09-11T07:15:40.601Z,1017.69
2016-09-11T07:16:06.140Z,1017.68
2016-09-11T07:16:31.789Z,1017.64
2016-09-11T07:16:57.408Z,1017.67
2016-09-11T07:17:23.031Z,1017.64
2016-09-11T07:17:48.637Z,1017.69
2016-09-11T07:18:14.217Z,1017.66
2016-09-11T07:18:39.787Z,1017.69
2016-09-11T07:19:05.407Z,1017.68
2016-09-11T07:19:31.162Z,1017.71
2016-09-11T07:19:56.758Z,1017.71
2016-09-11T07:20:22.366Z,1017.73
2016-09-11T07:20:47.967Z,1017.73
2016-09-11T07:21:13.578Z,1017.7
2016-09-11T07:22:16.823Z,1017.73
2016-09-11T07:22:42.398Z,1017.73
2016-09-11T07:23:08.217Z,1017.74
2016-09-11T07:23:33.777Z,1017.75
2016-09-11T07:23:59.366Z,1017.75
2016-09-11T07:24:25.137Z,1017.78
2016-09-11T07:24:50.583Z,1017.76
2016-09-11T07:25:16.221Z,1017.74
2016-09-11T07:25:41.843Z,1017.77
2016-09-11T07:26:07.422Z,1017.74
2016-09-11T07:26:33.049Z,1017.74
2016-09-11T07:26:58.583Z,1017.73
2016-09-11T07:27:24.168Z,1017.74
2016-09-11T07:27:49.740Z,1017.77
2016-09-11T07:28:15.492Z,1017.75
2016-09-11T07:28:41.091Z,1017.74
2016-09-11T07:29:06.631Z,1017.75
2016-09-11T07:29:32.738Z,1017.73
2016-09-11T07:29:58.272Z,1017.74
2016-09-11T07:30:24.417Z,1017.69
2016-09-11T07:30:49.965Z,1017.75
2016-09-11T07:31:15.564Z,1017.75
2016-09-11T07:31:41.129Z,1017.76
2016-09-11T07:32:07.222Z,1017.75
2016-09-11T07:32:32.852Z,1017.76
2016-09-11T07:32:58.434Z,1017.71
2016-09-11T07:33:24.090Z,1017.74
2016-09-11T07:33:49.673Z,1017.74
2016-09-11T07:34:15.395Z,1017.69
2016-09-11T07:34:41.004Z,1017.74
2016-09-11T07:35:09.052Z,1017.72
2016-09-11T07:35:34.582Z,1017.76
2016-09-11T07:36:00.155Z,1017.74
2016-09-11T07:36:25.982Z,1017.74
2016-09-11T07:36:51.579Z,1017.76
2016-09-11T07:37:17.198Z,1017.79
2016-09-11T07:37:42.892Z,1017.79
2016-09-11T07:38:10.151Z,1017.77
2016-09-11T07:38:35.701Z,1017.81
2016-09-11T07:39:01.299Z,1017.81
2016-09-11T07:39:26.886Z,1017.82
2016-09-11T07:39:52.624Z,1017.8
2016-09-11T07:40:18.264Z,1017.84
2016-09-11T07:40:43.839Z,1017.84
2016-09-11T07:41:09.563Z,1017.86
2016-09-11T07:41:35.131Z,1017.85
2016-09-11T07:42:00.792Z,1017.89
2016-09-11T07:42:26.460Z,1017.92
2016-09-11T07:42:52.001Z,1017.91
2016-09-11T07:43:17.776Z,1017.92
2016-09-11T07:43:43.271Z,1017.92
2016-09-11T07:44:09.137Z,1017.96
2016-09-11T07:44:34.604Z,1017.93
2016-09-11T07:45:00.575Z,1017.97
2016-09-11T07:45:26.139Z,1017.99
2016-09-11T07:45:51.625Z,1017.99
2016-09-11T07:46:17.291Z,1017.95
2016-09-11T07:46:42.929Z,1017.92
2016-09-11T07:47:08.555Z,1017.96
2016-09-11T07:47:34.227Z,1017.99
2016-09-11T07:47:59.886Z,1017.98
2016-09-11T07:48:25.454Z,1018.02
2016-09-11T07:48:51.032Z,1017.96
2016-09-11T07:49:16.663Z,1018.02
2016-09-11T07:49:42.199Z,1018
2016-09-11T07:50:07.912Z,1018
2016-09-11T07:50:33.518Z,1018.02
2016-09-11T07:50:59.073Z,1018.08
2016-09-11T07:51:24.650Z,1018.06
2016-09-11T07:51:50.256Z,1018.07
2016-09-11T07:52:15.964Z,1018.07
2016-09-11T07:52:41.496Z,1018.02
2016-09-11T07:53:07.096Z,1018.04
2016-09-11T07:53:33.008Z,1018.07
2016-09-11T07:53:58.652Z,1018.07
2016-09-11T07:54:24.559Z,1018.09
2016-09-11T07:54:50.159Z,1018.08
2016-09-11T07:55:15.957Z,1018.12
2016-09-11T07:55:41.864Z,1018.09
2016-09-11T07:56:08.109Z,1018.08
2016-09-11T07:56:34.318Z,1018.07
2016-09-11T07:57:00.304Z,1018.08
2016-09-11T07:57:26.358Z,1018.11
2016-09-11T07:57:52.193Z,1018.1
2016-09-11T07:58:18.474Z,1018.12
2016-09-11T07:58:44.704Z,1018.06
2016-09-11T07:59:10.451Z,1018.08
2016-09-11T07:59:36.379Z,1018.07
2016-09-11T08:00:02.139Z,1018.09
2016-09-11T08:00:27.589Z,1018.12
2016-09-11T08:00:53.182Z,1018.12
2016-09-11T08:01:18.824Z,1018.11
2016-09-11T08:01:44.418Z,1018.14
2016-09-11T08:02:10.026Z,1018.1
2016-09-11T08:02:35.766Z,1018.13
2016-09-11T08:03:01.533Z,1018.15
2016-09-11T08:03:27.024Z,1018.12
2016-09-11T08:03:52.638Z,1018.14
2016-09-11T08:04:18.395Z,1018.13
2016-09-11T08:04:44.070Z,1018.12
2016-09-11T08:05:09.708Z,1018.16
2016-09-11T08:05:35.272Z,1018.13
2016-09-11T08:06:01.107Z,1018.12
2016-09-11T08:06:26.674Z,1018.13
2016-09-11T08:06:52.620Z,1018.18
2016-09-11T08:07:18.370Z,1018.19
2016-09-11T08:07:43.973Z,1018.19
2016-09-11T08:08:09.573Z,1018.21
2016-09-11T08:08:35.117Z,1018.22
2016-09-11T08:09:00.716Z,1018.2
2016-09-11T08:09:26.304Z,1018.24
2016-09-11T08:09:51.986Z,1018.24
2016-09-11T08:10:17.733Z,1018.21
2016-09-11T08:10:43.334Z,1018.27
2016-09-11T08:11:09.125Z,1018.25
2016-09-11T08:11:34.771Z,1018.28
2016-09-11T08:12:00.383Z,1018.27
2016-09-11T08:12:25.932Z,1018.26
2016-09-11T08:12:51.624Z,1018.29
2016-09-11T08:13:17.611Z,1018.29
2016-09-11T08:13:43.155Z,1018.29
2016-09-11T08:14:08.872Z,1018.29
2016-09-11T08:14:34.380Z,1018.3
2016-09-11T08:14:59.942Z,1018.32
2016-09-11T08:15:25.553Z,1018.28
2016-09-11T08:15:51.203Z,1018.27
2016-09-11T08:16:16.798Z,1018.31
2016-09-11T08:16:42.419Z,1018.29
2016-09-11T08:18:06.206Z,1018.39
2016-09-11T08:18:31.879Z,1018.34
2016-09-11T08:18:57.426Z,1018.37
2016-09-11T08:19:23.104Z,1018.37
2016-09-11T08:19:48.830Z,1018.44
2016-09-11T08:20:14.613Z,1018.44
2016-09-11T08:20:40.199Z,1018.41
2016-09-11T08:21:06.157Z,1018.39
2016-09-11T08:21:31.755Z,1018.41
2016-09-11T08:21:58.084Z,1018.42
2016-09-11T08:22:23.666Z,1018.37
2016-09-11T08:22:49.235Z,1018.42
2016-09-11T08:23:15.297Z,1018.38
2016-09-11T08:23:40.968Z,1018.4
2016-09-11T08:24:07.166Z,1018.42
2016-09-11T08:24:32.761Z,1018.38
2016-09-11T08:24:58.901Z,1018.44
2016-09-11T08:25:24.461Z,1018.47
2016-09-11T08:25:50.019Z,1018.49
2016-09-11T08:26:16.287Z,1018.47
2016-09-11T08:26:41.887Z,1018.49
2016-09-11T08:27:08.150Z,1018.46
2016-09-11T08:27:33.806Z,1018.51
2016-09-11T08:27:59.526Z,1018.48
2016-09-11T08:28:25.412Z,1018.47
2016-09-11T08:28:51.039Z,1018.51
2016-09-11T08:29:17.254Z,1018.51
2016-09-11T08:29:42.839Z,1018.53
2016-09-11T08:30:09.038Z,1018.56
2016-09-11T08:30:34.645Z,1018.5
2016-09-11T08:31:00.331Z,1018.51
2016-09-11T08:32:57.062Z,1018.56
2016-09-11T08:33:22.717Z,1018.57
2016-09-11T08:33:48.496Z,1018.59
2016-09-11T08:34:13.991Z,1018.59
2016-09-11T08:34:39.564Z,1018.52
2016-09-11T08:35:05.533Z,1018.54
2016-09-11T08:36:51.486Z,1018.61
2016-09-11T08:37:17.055Z,1018.57
2016-09-11T08:37:42.700Z,1018.57
2016-09-11T08:38:08.306Z,1018.63
2016-09-11T08:38:33.852Z,1018.65
2016-09-11T08:38:59.401Z,1018.62
2016-09-11T08:39:25.049Z,1018.66
2016-09-11T08:39:50.603Z,1018.64
2016-09-11T08:40:16.179Z,1018.61
2016-09-11T08:40:41.718Z,1018.68
2016-09-11T08:41:07.497Z,1018.64
2016-09-11T08:41:33.062Z,1018.62
2016-09-11T08:41:58.680Z,1018.63
2016-09-11T08:42:24.244Z,1018.72
2016-09-11T08:42:49.980Z,1018.61
2016-09-11T08:43:15.620Z,1018.66
2016-09-11T08:43:41.237Z,1018.69
2016-09-11T08:44:07.283Z,1018.64
2016-09-11T08:44:32.928Z,1018.61
2016-09-11T08:44:58.472Z,1018.62
2016-09-11T08:45:24.008Z,1018.67
2016-09-11T08:45:49.579Z,1018.65
2016-09-11T08:46:15.108Z,1018.63
2016-09-11T08:46:40.869Z,1018.67
2016-09-11T08:47:06.431Z,1018.65
2016-09-11T08:47:32.061Z,1018.71
2016-09-11T08:47:57.844Z,1018.67
2016-09-11T08:48:23.536Z,1018.67
2016-09-11T08:48:49.077Z,1018.71
2016-09-11T08:49:14.626Z,1018.69
2016-09-11T08:49:40.317Z,1018.69
2016-09-11T08:50:43.506Z,1018.7
2016-09-11T08:51:09.084Z,1018.73
2016-09-11T08:51:34.723Z,1018.73
2016-09-11T08:52:00.368Z,1018.75
2016-09-11T08:52:25.993Z,1018.74
2016-09-11T08:52:51.620Z,1018.75
2016-09-11T08:53:17.217Z,1018.77
2016-09-11T08:53:42.805Z,1018.74
2016-09-11T08:54:08.409Z,1018.76
2016-09-11T08:54:33.995Z,1018.76
2016-09-11T08:54:59.563Z,1018.78
2016-09-11T08:55:25.117Z,1018.79
2016-09-11T08:55:50.754Z,1018.78
2016-09-11T08:56:16.416Z,1018.77
2016-09-11T08:56:42.077Z,1018.8
2016-09-11T08:57:07.997Z,1018.79
2016-09-11T08:57:33.608Z,1018.77
2016-09-11T08:57:59.421Z,1018.82
2016-09-11T08:58:25.083Z,1018.81
2016-09-11T08:58:50.614Z,1018.82
2016-09-11T08:59:16.228Z,1018.83
2016-09-11T08:59:41.773Z,1018.81
2016-09-11T09:00:07.491Z,1018.82
2016-09-11T09:00:33.200Z,1018.81
2016-09-11T09:00:58.779Z,1018.77
2016-09-11T09:01:24.482Z,1018.79
2016-09-11T09:01:50.053Z,1018.84
2016-09-11T09:02:15.695Z,1018.82
2016-09-11T09:02:41.250Z,1018.82
2016-09-11T09:03:06.886Z,1018.8
2016-09-11T09:03:32.451Z,1018.83
2016-09-11T09:03:58.206Z,1018.85
2016-09-11T09:04:24.292Z,1018.86
2016-09-11T09:04:49.841Z,1018.78
2016-09-11T09:05:15.598Z,1018.79
2016-09-11T09:05:41.302Z,1018.82
2016-09-11T09:06:06.979Z,1018.82
2016-09-11T09:06:32.787Z,1018.82
2016-09-11T09:06:58.324Z,1018.81
2016-09-11T09:07:24.007Z,1018.81
2016-09-11T09:07:49.810Z,1018.84
2016-09-11T09:08:15.481Z,1018.83
2016-09-11T09:08:41.177Z,1018.81
2016-09-11T09:09:06.849Z,1018.83
2016-09-11T09:09:32.413Z,1018.78
2016-09-11T09:09:58.065Z,1018.85
2016-09-11T09:10:23.649Z,1018.85
2016-09-11T09:10:49.228Z,1018.86
2016-09-11T09:11:14.935Z,1018.84
2016-09-11T09:11:40.536Z,1018.84
2016-09-11T09:12:06.382Z,1018.85
2016-09-11T09:12:32.196Z,1018.9
2016-09-11T09:12:57.870Z,1018.92
2016-09-11T09:14:39.491Z,1018.84
2016-09-11T09:15:04.891Z,1018.9
2016-09-11T09:15:30.459Z,1018.86
2016-09-11T09:15:56.008Z,1018.85
2016-09-11T09:16:21.825Z,1018.86
2016-09-11T09:17:20.007Z,1018.89
2016-09-11T09:17:45.639Z,1018.89
2016-09-11T09:18:11.468Z,1018.89
2016-09-11T09:18:37.155Z,1018.9
2016-09-11T09:19:03.643Z,1018.86
2016-09-11T09:19:29.362Z,1018.87
2016-09-11T09:19:54.978Z,1018.87
2016-09-11T09:20:20.553Z,1018.86
2016-09-11T09:20:46.123Z,1018.88
2016-09-11T09:21:11.790Z,1018.87
2016-09-11T09:21:37.401Z,1018.87
2016-09-11T09:22:03.167Z,1018.87